createdAt,value
2023-02-14T00:00:44.461Z,14.90
2023-02-14T00:03:11.235Z,17.35
2023-02-14T00:05:38.003Z,16.48
2023-02-14T00:08:04.790Z,17.42
2023-02-14T00:10:31.495Z,18.13
2023-02-14T00:12:58.172Z,15.93
2023-02-14T00:15:27.374Z,19.67
2023-02-14T00:17:56.555Z,19.85
2023-02-14T00:20:23.750Z,16.08
2023-02-14T00:22:50.536Z,19.73
2023-02-14T00:25:18.190Z,13.82
2023-02-14T00:27:45.091Z,15.38
2023-02-14T00:30:13.810Z,16.13
2023-02-14T00:32:41.762Z,16.58
2023-02-14T00:35:10.095Z,14.55
2023-02-14T00:37:36.979Z,16.55
2023-02-14T00:40:05.396Z,13.45
2023-02-14T00:42:32.156Z,18.02
2023-02-14T00:44:58.844Z,16.10
2023-02-14T00:47:25.672Z,15.25
2023-02-14T00:49:52.371Z,14.15
2023-02-14T00:52:19.373Z,14.80
2023-02-14T00:54:46.296Z,15.55
2023-02-14T00:57:13.025Z,13.63
2023-02-14T00:59:39.734Z,16.58
2023-02-14T01:02:06.416Z,14.60
2023-02-14T01:04:33.233Z,13.82
2023-02-14T01:06:59.971Z,16.13
2023-02-14T01:09:26.682Z,16.75
2023-02-14T01:11:53.380Z,17.33
2023-02-14T01:14:20.095Z,17.15
2023-02-14T01:16:46.848Z,16.52
2023-02-14T01:19:13.544Z,14.20
2023-02-14T01:21:41.382Z,18.98
2023-02-14T01:24:09.141Z,14.23
2023-02-14T01:26:35.922Z,18.60
2023-02-14T01:29:04.339Z,14.70
2023-02-14T01:31:32.951Z,16.23
2023-02-14T01:34:00.175Z,16.42
2023-02-14T01:36:29.876Z,17.77
2023-02-14T01:38:59.840Z,19.27
2023-02-14T01:41:29.493Z,15.07
2023-02-14T01:44:15.934Z,15.10
2023-02-14T01:46:44.772Z,16.20
2023-02-14T01:49:16.571Z,13.73
2023-02-14T01:51:46.183Z,16.38
2023-02-14T01:54:13.253Z,16.90
2023-02-14T01:56:46.609Z,13.85
2023-02-14T01:59:16.246Z,16.58
2023-02-14T02:01:43.519Z,17.05
2023-02-14T02:04:19.296Z,14.80
2023-02-14T02:06:53.673Z,13.70
2023-02-14T02:09:27.451Z,15.05
2023-02-14T02:11:54.269Z,16.58
2023-02-14T02:14:23.254Z,17.33
2023-02-14T02:17:11.692Z,14.80
2023-02-14T02:20:09.941Z,17.73
2023-02-14T02:25:22.036Z,12.05
2023-02-14T02:30:58.437Z,12.60
2023-02-14T02:33:39.961Z,12.52
2023-02-14T02:36:25.345Z,12.20
2023-02-14T02:39:12.534Z,11.85
2023-02-14T02:41:56.099Z,18.70
2023-02-14T02:44:42.737Z,14.95
2023-02-14T02:47:24.445Z,14.50
2023-02-14T02:50:36.741Z,14.77
2023-02-14T02:53:27.530Z,16.25
2023-02-14T02:56:16.220Z,18.40
2023-02-14T02:58:51.697Z,14.93
2023-02-14T03:01:23.275Z,13.40
2023-02-14T03:04:15.174Z,14.40
2023-02-14T03:09:20.736Z,13.02
2023-02-14T03:12:01.288Z,11.55
2023-02-14T03:14:50.353Z,16.50
2023-02-14T03:17:35.859Z,15.07
2023-02-14T03:23:13.220Z,14.63
2023-02-14T03:25:50.014Z,10.00
2023-02-14T03:28:32.777Z,14.65
2023-02-14T03:31:17.597Z,15.57
2023-02-14T03:34:12.350Z,14.63
2023-02-14T03:36:54.599Z,13.48
2023-02-14T03:39:27.582Z,16.05
2023-02-14T03:42:06.089Z,15.60
2023-02-14T03:44:36.088Z,16.30
2023-02-14T03:47:14.565Z,14.43
2023-02-14T03:49:55.206Z,16.42
2023-02-14T03:52:24.486Z,17.10
2023-02-14T03:54:54.363Z,18.85
2023-02-14T03:57:29.844Z,14.98
2023-02-14T03:59:57.004Z,19.15
2023-02-14T04:02:51.582Z,18.08
2023-02-14T04:05:23.139Z,17.33
2023-02-14T04:07:52.994Z,16.27
2023-02-14T04:10:20.806Z,22.63
2023-02-14T04:12:48.390Z,17.63
2023-02-14T04:15:16.290Z,19.52
2023-02-14T04:18:01.519Z,16.88
2023-02-14T04:20:28.864Z,23.30
2023-02-14T04:22:55.607Z,19.23
2023-02-14T04:25:22.753Z,15.57
2023-02-14T04:27:49.667Z,26.25
2023-02-14T04:30:18.055Z,17.20
2023-02-14T04:32:45.137Z,21.65
2023-02-14T04:35:12.077Z,16.88
2023-02-14T04:37:39.353Z,17.23
2023-02-14T04:40:06.879Z,17.35
2023-02-14T04:42:33.691Z,19.48
2023-02-14T04:45:02.546Z,24.13
2023-02-14T04:47:30.601Z,17.33
2023-02-14T04:49:57.664Z,18.98
2023-02-14T04:52:24.513Z,17.30
2023-02-14T04:54:51.200Z,16.98
2023-02-14T04:57:17.938Z,20.48
2023-02-14T04:59:44.696Z,16.30
2023-02-14T05:02:11.498Z,18.75
2023-02-14T05:04:38.294Z,17.15
2023-02-14T05:07:05.093Z,18.10
2023-02-14T05:09:31.797Z,28.13
2023-02-14T05:11:58.601Z,46.47
2023-02-14T05:14:25.357Z,15.32
2023-02-14T05:16:52.247Z,27.73
2023-02-14T05:19:18.969Z,41.60
2023-02-14T05:21:45.617Z,23.17
2023-02-14T05:24:12.395Z,15.13
2023-02-14T05:26:39.249Z,16.95
2023-02-14T05:29:06.006Z,13.20
2023-02-14T05:31:32.878Z,14.77
2023-02-14T05:33:59.662Z,21.90
2023-02-14T05:36:26.648Z,38.30
2023-02-14T05:38:53.642Z,13.93
2023-02-14T05:41:20.595Z,14.40
2023-02-14T05:43:47.364Z,11.65
2023-02-14T05:46:14.244Z,15.45
2023-02-14T05:48:41.040Z,16.95
2023-02-14T05:51:09.909Z,16.70
2023-02-14T05:53:36.651Z,15.07
2023-02-14T05:56:03.657Z,11.57
2023-02-14T05:58:30.536Z,11.70
2023-02-14T06:00:58.453Z,14.63
2023-02-14T06:03:25.787Z,16.15
2023-02-14T06:05:52.458Z,12.00
2023-02-14T06:08:19.274Z,12.27
2023-02-14T06:10:46.790Z,12.35
2023-02-14T06:13:13.600Z,14.13
2023-02-14T06:15:40.304Z,26.98
2023-02-14T06:18:07.112Z,16.95
2023-02-14T06:20:33.892Z,26.92
2023-02-14T06:23:01.421Z,12.00
2023-02-14T06:25:28.520Z,14.13
2023-02-14T06:27:59.259Z,21.67
2023-02-14T06:30:26.800Z,26.35
2023-02-14T06:32:53.551Z,54.65
2023-02-14T06:35:20.215Z,16.88
2023-02-14T06:37:47.195Z,25.55
2023-02-14T06:40:14.273Z,12.63
2023-02-14T06:42:41.214Z,25.40
2023-02-14T06:45:08.505Z,64.28
2023-02-14T06:47:35.372Z,63.83
2023-02-14T06:50:04.268Z,29.95
2023-02-14T06:52:32.498Z,63.83
2023-02-14T06:54:59.164Z,27.45
2023-02-14T06:57:25.880Z,27.40
2023-02-14T06:59:52.527Z,14.48
2023-02-14T07:02:19.602Z,32.35
2023-02-14T07:04:46.392Z,15.05
2023-02-14T07:07:13.117Z,15.60
2023-02-14T07:09:39.903Z,40.47
2023-02-14T07:12:06.881Z,15.38
2023-02-14T07:14:33.563Z,22.80
2023-02-14T07:17:00.272Z,38.53
2023-02-14T07:19:27.048Z,18.27
2023-02-14T07:21:53.762Z,33.25
2023-02-14T07:24:20.720Z,31.40
2023-02-14T07:26:47.405Z,19.92
2023-02-14T07:29:14.112Z,34.80
2023-02-14T07:31:41.011Z,20.92
2023-02-14T07:34:07.720Z,29.00
2023-02-14T07:36:39.948Z,16.80
2023-02-14T07:39:06.717Z,15.85
2023-02-14T07:41:33.444Z,16.50
2023-02-14T07:44:00.141Z,22.48
2023-02-14T07:46:26.887Z,26.38
2023-02-14T07:48:53.759Z,39.45
2023-02-14T07:51:20.517Z,19.75
2023-02-14T07:53:47.394Z,18.67
2023-02-14T07:56:14.208Z,20.40
2023-02-14T07:58:40.959Z,21.25
2023-02-14T08:01:07.756Z,17.17
2023-02-14T08:03:34.515Z,24.88
2023-02-14T08:06:01.551Z,31.02
2023-02-14T08:08:30.395Z,22.88
2023-02-14T08:10:57.703Z,22.10
2023-02-14T08:13:24.638Z,20.42
2023-02-14T08:16:06.661Z,18.00
2023-02-14T08:18:36.736Z,16.77
2023-02-14T08:21:04.496Z,23.02
2023-02-14T08:23:31.345Z,19.55
2023-02-14T08:25:58.275Z,24.63
2023-02-14T08:28:26.146Z,20.30
2023-02-14T08:30:53.478Z,21.27
2023-02-14T08:33:21.001Z,20.52
2023-02-14T08:35:48.231Z,22.75
2023-02-14T08:38:15.113Z,22.23
2023-02-14T08:40:42.132Z,23.73
2023-02-14T08:43:09.332Z,29.67
2023-02-14T08:45:36.436Z,24.77
2023-02-14T08:48:09.054Z,31.20
2023-02-14T08:50:37.265Z,17.98
2023-02-14T08:53:12.073Z,18.88
2023-02-14T08:55:40.620Z,26.15
2023-02-14T08:58:08.020Z,20.45
2023-02-14T09:00:35.251Z,25.35
2023-02-14T09:03:02.154Z,21.17
2023-02-14T09:05:28.959Z,20.08
2023-02-14T09:07:56.571Z,26.65
2023-02-14T09:10:24.536Z,24.88
2023-02-14T09:12:51.693Z,20.30
2023-02-14T09:15:18.500Z,21.30
2023-02-14T09:17:45.547Z,21.25
2023-02-14T09:20:13.927Z,25.95
2023-02-14T09:22:40.707Z,26.33
2023-02-14T09:25:07.717Z,22.50
2023-02-14T09:27:34.665Z,21.65
2023-02-14T09:30:01.460Z,21.65
2023-02-14T09:32:29.291Z,24.10
2023-02-14T09:34:56.097Z,20.98
2023-02-14T09:37:23.071Z,21.88
2023-02-14T09:39:49.799Z,21.20
2023-02-14T09:42:19.221Z,23.02
2023-02-14T09:44:53.703Z,20.83
2023-02-14T09:47:30.641Z,20.23
2023-02-14T09:49:59.933Z,21.17
2023-02-14T09:52:30.080Z,18.05
2023-02-14T09:55:02.703Z,21.83
2023-02-14T09:57:45.099Z,21.52
2023-02-14T10:00:24.878Z,23.10
2023-02-14T10:03:26.091Z,20.67
2023-02-14T10:06:04.669Z,22.17
2023-02-14T10:08:52.743Z,21.52
2023-02-14T10:11:24.659Z,18.73
2023-02-14T10:14:13.768Z,19.65
2023-02-14T10:16:47.771Z,19.02
2023-02-14T10:19:34.440Z,17.23
2023-02-14T10:22:14.212Z,17.27
2023-02-14T10:24:54.144Z,17.00
2023-02-14T10:27:29.756Z,17.85
2023-02-14T10:29:56.675Z,17.58
2023-02-14T10:32:42.131Z,22.30
2023-02-14T10:35:43.366Z,19.65
2023-02-14T10:38:19.964Z,18.05
2023-02-14T10:41:17.841Z,16.67
2023-02-14T10:44:08.757Z,18.05
2023-02-14T10:46:52.780Z,17.92
2023-02-14T10:49:34.524Z,18.50
2023-02-14T10:52:08.155Z,19.50
2023-02-14T10:54:50.606Z,20.88
2023-02-14T10:57:26.248Z,16.88
2023-02-14T11:00:17.072Z,16.33
2023-02-14T11:02:46.948Z,18.00
2023-02-14T11:05:30.697Z,18.48
2023-02-14T11:07:59.158Z,21.42
2023-02-14T11:10:34.038Z,16.63
2023-02-14T11:13:00.888Z,19.33
2023-02-14T11:15:39.732Z,19.15
2023-02-14T11:18:23.101Z,16.67
2023-02-14T11:21:07.174Z,19.70
2023-02-14T11:23:47.222Z,17.63
2023-02-14T11:26:24.639Z,18.10
2023-02-14T11:29:04.020Z,15.07
2023-02-14T11:31:34.065Z,16.92
2023-02-14T11:34:05.058Z,17.02
2023-02-14T11:36:33.694Z,16.60
2023-02-14T11:39:20.364Z,17.75
2023-02-14T11:41:51.756Z,19.95
2023-02-14T11:44:27.355Z,23.50
2023-02-14T11:46:56.396Z,16.63
2023-02-14T11:49:32.883Z,19.40
2023-02-14T11:52:17.395Z,18.27
2023-02-14T11:54:49.465Z,16.95
2023-02-14T11:57:34.488Z,19.63
2023-02-14T12:00:05.157Z,18.67
2023-02-14T12:02:46.475Z,14.70
2023-02-14T12:05:20.891Z,19.55
2023-02-14T12:07:52.857Z,18.75
2023-02-14T12:10:25.146Z,16.75
2023-02-14T12:13:10.050Z,18.88
2023-02-14T12:15:38.357Z,16.75
2023-02-14T12:18:14.058Z,17.17
2023-02-14T12:21:12.862Z,16.33
2023-02-14T12:24:16.982Z,17.88
2023-02-14T12:27:02.748Z,17.02
2023-02-14T12:29:47.191Z,15.10
2023-02-14T12:32:21.520Z,17.50
2023-02-14T12:34:49.281Z,20.08
2023-02-14T12:38:07.398Z,18.55
2023-02-14T12:40:52.881Z,18.35
2023-02-14T12:43:54.029Z,20.27
2023-02-14T12:46:38.892Z,18.40
2023-02-14T12:49:24.447Z,16.33
2023-02-14T12:52:21.396Z,13.70
2023-02-14T12:55:26.488Z,13.65
2023-02-14T12:58:02.553Z,13.80
2023-02-14T13:00:37.918Z,12.68
2023-02-14T13:03:39.654Z,14.35
2023-02-14T13:06:29.713Z,16.35
2023-02-14T13:09:21.509Z,15.75
2023-02-14T13:12:21.335Z,13.45
2023-02-14T13:15:19.276Z,14.77
2023-02-14T13:17:59.399Z,14.10
2023-02-14T13:20:38.219Z,13.30
2023-02-14T13:25:37.575Z,17.38
2023-02-14T13:28:07.353Z,14.40
2023-02-14T13:30:36.969Z,14.55
2023-02-14T13:33:25.051Z,14.60
2023-02-14T13:35:56.085Z,15.77
2023-02-14T13:38:24.555Z,19.38
2023-02-14T13:40:52.492Z,15.43
2023-02-14T13:43:50.242Z,15.00
2023-02-14T13:49:29.112Z,19.63
2023-02-14T13:51:59.365Z,18.65
2023-02-14T13:54:29.764Z,15.38
2023-02-14T13:56:58.555Z,16.92
2023-02-14T13:59:29.414Z,16.60
2023-02-14T14:02:16.599Z,17.20
2023-02-14T14:04:43.300Z,16.67
2023-02-14T14:07:30.876Z,18.38
2023-02-14T14:10:02.461Z,16.65
2023-02-14T14:12:29.122Z,19.20
2023-02-14T14:15:05.199Z,17.23
2023-02-14T14:17:39.334Z,18.23
2023-02-14T14:20:21.359Z,17.48
2023-02-14T14:22:50.602Z,20.38
2023-02-14T14:25:37.356Z,16.30
2023-02-14T14:28:11.166Z,19.95
2023-02-14T14:30:40.226Z,19.10
2023-02-14T14:33:25.807Z,16.45
2023-02-14T14:35:57.002Z,18.70
2023-02-14T14:38:24.730Z,16.50
2023-02-14T14:40:52.828Z,19.40
2023-02-14T14:43:39.770Z,20.30
2023-02-14T14:46:11.400Z,17.80
2023-02-14T14:48:45.615Z,18.02
2023-02-14T14:51:34.256Z,18.33
2023-02-14T14:54:05.913Z,20.15
2023-02-14T14:56:40.587Z,18.42
2023-02-14T14:59:20.270Z,18.77
2023-02-14T15:01:47.937Z,18.27
2023-02-14T15:04:14.551Z,17.30
2023-02-14T15:06:41.603Z,16.42
2023-02-14T15:09:31.565Z,19.60
2023-02-14T15:12:19.521Z,17.58
2023-02-14T15:14:54.331Z,19.52
2023-02-14T15:17:26.391Z,17.67
2023-02-14T15:19:57.356Z,19.52
2023-02-14T15:22:27.057Z,18.50
2023-02-14T15:24:54.173Z,20.73
2023-02-14T15:27:26.017Z,22.65
2023-02-14T15:29:59.341Z,19.48
2023-02-14T15:32:29.360Z,19.55
2023-02-14T15:34:56.916Z,19.98
2023-02-14T15:37:25.372Z,17.98
2023-02-14T15:39:55.889Z,19.33
2023-02-14T15:42:32.701Z,18.52
2023-02-14T15:45:27.662Z,20.73
2023-02-14T15:47:55.957Z,20.48
2023-02-14T15:50:25.953Z,24.08
2023-02-14T15:53:02.606Z,20.77
2023-02-14T15:55:31.568Z,20.58
2023-02-14T15:58:05.397Z,19.25
2023-02-14T16:00:33.558Z,20.25
2023-02-14T16:03:06.190Z,20.52
2023-02-14T16:05:33.257Z,22.95
2023-02-14T16:08:22.740Z,19.98
2023-02-14T16:11:03.125Z,21.95
2023-02-14T16:13:35.222Z,18.45
2023-02-14T16:16:07.925Z,18.88
2023-02-14T16:18:37.711Z,19.42
2023-02-14T16:21:26.792Z,20.90
2023-02-14T16:24:06.663Z,18.58
2023-02-14T16:26:35.040Z,19.48
2023-02-14T16:29:10.490Z,18.17
2023-02-14T16:32:12.082Z,19.63
2023-02-14T16:37:25.048Z,20.77
2023-02-14T16:39:54.435Z,20.65
2023-02-14T16:42:21.361Z,22.23
2023-02-14T16:44:48.570Z,20.95
2023-02-14T16:47:17.468Z,18.67
2023-02-14T16:49:44.862Z,19.85
2023-02-14T16:52:23.710Z,18.75
2023-02-14T16:54:50.776Z,22.48
2023-02-14T16:57:45.783Z,21.55
2023-02-14T17:00:13.163Z,22.75
2023-02-14T17:02:43.779Z,22.13
2023-02-14T17:05:11.118Z,21.55
2023-02-14T17:07:39.040Z,19.45
2023-02-14T17:10:15.250Z,20.73
2023-02-14T17:12:45.949Z,21.48
2023-02-14T17:15:21.475Z,21.13
2023-02-14T17:17:50.093Z,24.48
2023-02-14T17:20:19.833Z,18.75
2023-02-14T17:22:46.602Z,21.02
2023-02-14T17:25:14.090Z,21.08
2023-02-14T17:27:43.986Z,21.05
2023-02-14T17:30:12.575Z,25.90
2023-02-14T17:32:39.301Z,25.95
2023-02-14T17:35:08.851Z,20.75
2023-02-14T17:37:36.931Z,21.88
2023-02-14T17:40:05.920Z,23.80
2023-02-14T17:42:33.939Z,21.73
2023-02-14T17:45:01.406Z,23.17
2023-02-14T17:47:29.612Z,23.48
2023-02-14T17:49:57.453Z,22.23
2023-02-14T17:52:25.085Z,21.95
2023-02-14T17:54:52.198Z,22.17
2023-02-14T17:57:18.883Z,25.60
2023-02-14T17:59:46.830Z,29.13
2023-02-14T18:02:13.862Z,21.58
2023-02-14T18:04:41.686Z,22.38
2023-02-14T18:07:08.878Z,25.70
2023-02-14T18:09:35.670Z,23.55
2023-02-14T18:12:02.389Z,25.17
2023-02-14T18:14:29.142Z,23.20
2023-02-14T18:16:55.834Z,24.52
2023-02-14T18:19:22.875Z,26.00
2023-02-14T18:21:49.932Z,29.70
2023-02-14T18:24:17.041Z,21.92
2023-02-14T18:26:44.555Z,28.83
2023-02-14T18:29:14.972Z,26.55
2023-02-14T18:31:44.084Z,29.60
2023-02-14T18:34:11.729Z,32.80
2023-02-14T18:36:41.172Z,27.05
2023-02-14T18:39:09.152Z,30.55
2023-02-14T18:41:36.514Z,27.50
2023-02-14T18:44:03.487Z,27.30
2023-02-14T18:46:36.052Z,27.73
2023-02-14T18:49:13.726Z,27.38
2023-02-14T18:51:40.819Z,32.00
2023-02-14T18:54:07.658Z,31.42
2023-02-14T18:56:37.133Z,31.35
2023-02-14T18:59:07.201Z,29.42
2023-02-14T19:01:37.070Z,30.33
2023-02-14T19:04:06.420Z,31.55
2023-02-14T19:06:34.064Z,35.67
2023-02-14T19:09:02.503Z,31.05
2023-02-14T19:11:31.695Z,29.67
2023-02-14T19:14:01.525Z,32.13
2023-02-14T19:16:33.480Z,31.05
2023-02-14T19:19:02.511Z,35.60
2023-02-14T19:21:31.653Z,30.92
2023-02-14T19:23:59.196Z,32.58
2023-02-14T19:26:29.242Z,33.55
2023-02-14T19:28:58.761Z,29.17
2023-02-14T19:31:26.972Z,33.30
2023-02-14T19:33:54.651Z,34.65
2023-02-14T19:36:22.776Z,31.80
2023-02-14T19:38:53.432Z,35.08
2023-02-14T19:41:30.190Z,27.58
2023-02-14T19:43:59.287Z,25.95
2023-02-14T19:46:27.177Z,36.53
2023-02-14T19:48:56.394Z,33.58
2023-02-14T19:51:31.555Z,34.53
2023-02-14T19:54:00.632Z,31.08
2023-02-14T19:56:33.621Z,40.97
2023-02-14T20:01:33.611Z,34.03
2023-02-14T20:04:01.803Z,29.30
2023-02-14T20:06:31.649Z,37.60
2023-02-14T20:08:59.513Z,44.25
2023-02-14T20:11:50.282Z,35.60
2023-02-14T20:14:38.388Z,38.67
2023-02-14T20:17:17.209Z,42.05
2023-02-14T20:19:43.966Z,34.45
2023-02-14T20:22:10.662Z,36.85
2023-02-14T20:24:38.061Z,43.22
2023-02-14T20:27:05.503Z,46.05
2023-02-14T20:29:33.202Z,43.30
2023-02-14T20:32:01.425Z,44.67
2023-02-14T20:34:28.296Z,56.63
2023-02-14T20:36:55.991Z,35.00
2023-02-14T20:39:27.851Z,65.97
2023-02-14T20:41:54.548Z,50.67
2023-02-14T20:44:22.119Z,45.85
2023-02-14T20:46:53.877Z,47.00
2023-02-14T20:49:21.989Z,56.78
2023-02-14T20:51:50.574Z,57.97
2023-02-14T20:54:18.328Z,47.97
2023-02-14T20:56:45.885Z,41.70
2023-02-14T20:59:13.641Z,40.53
2023-02-14T21:01:40.383Z,44.40
2023-02-14T21:04:07.110Z,29.58
2023-02-14T21:06:35.488Z,43.58
2023-02-14T21:09:03.182Z,40.15
2023-02-14T21:11:29.978Z,30.60
2023-02-14T21:13:59.884Z,39.53
2023-02-14T21:16:28.086Z,39.40
2023-02-14T21:19:00.821Z,37.65
2023-02-14T21:21:37.309Z,34.17
2023-02-14T21:24:10.121Z,39.67
2023-02-14T21:29:04.781Z,29.40
2023-02-14T21:31:32.327Z,49.53
2023-02-14T21:34:00.690Z,52.30
2023-02-14T21:36:32.399Z,48.83
2023-02-14T21:39:00.487Z,50.03
2023-02-14T21:41:29.293Z,45.65
2023-02-14T21:43:57.240Z,42.35
2023-02-14T21:46:27.575Z,49.20
2023-02-14T21:49:14.002Z,37.28
2023-02-14T21:51:41.520Z,40.78
2023-02-14T21:54:08.823Z,38.85
2023-02-14T21:56:37.819Z,39.85
2023-02-14T21:59:05.021Z,39.63
2023-02-14T22:01:34.496Z,47.05
2023-02-14T22:04:04.573Z,40.83
2023-02-14T22:06:32.064Z,40.40
2023-02-14T22:09:00.164Z,32.03
2023-02-14T22:11:28.720Z,33.20
2023-02-14T22:13:56.479Z,36.33
2023-02-14T22:16:24.583Z,29.17
2023-02-14T22:18:51.857Z,32.60
2023-02-14T22:21:24.394Z,41.15
2023-02-14T22:23:51.374Z,36.90
2023-02-14T22:26:22.888Z,32.03
2023-02-14T22:28:50.824Z,42.08
2023-02-14T22:31:19.164Z,35.85
2023-02-14T22:33:47.183Z,45.00
2023-02-14T22:36:14.328Z,43.90
2023-02-14T22:38:41.276Z,48.95
2023-02-14T22:41:19.448Z,41.78
2023-02-14T22:43:46.382Z,38.17
2023-02-14T22:46:17.095Z,61.17
2023-02-14T22:48:44.238Z,41.95
2023-02-14T22:51:17.856Z,37.22
2023-02-14T22:53:44.589Z,40.22
2023-02-14T22:56:26.567Z,47.88
2023-02-14T22:58:58.520Z,42.50
2023-02-14T23:01:26.098Z,38.28
2023-02-14T23:03:57.839Z,41.80
2023-02-14T23:06:26.703Z,43.30
2023-02-14T23:08:54.595Z,45.25
2023-02-14T23:11:24.296Z,58.58
2023-02-14T23:14:09.996Z,41.90
2023-02-14T23:16:55.387Z,45.50
2023-02-14T23:19:43.427Z,41.55
2023-02-14T23:22:16.003Z,33.35
2023-02-14T23:24:43.103Z,39.55
2023-02-14T23:27:10.136Z,41.53
2023-02-14T23:29:37.704Z,44.28
2023-02-14T23:32:08.527Z,39.45
2023-02-14T23:34:38.079Z,52.15
2023-02-14T23:37:05.490Z,40.80
2023-02-14T23:39:35.623Z,37.95
2023-02-14T23:42:10.473Z,41.85
2023-02-14T23:44:37.796Z,48.90
2023-02-14T23:47:07.135Z,41.83
2023-02-14T23:49:35.761Z,45.15
2023-02-14T23:52:03.639Z,40.70
2023-02-14T23:54:30.345Z,41.42
2023-02-14T23:56:57.602Z,48.35
2023-02-14T23:59:24.905Z,54.78
